Time;durP1;ratioP1;P1;durP2;ratioP2;P2;SDS_P1;SDS_P2;PMS_P1;PMS_P2;Temp;Humidity;BMP_temperature;BMP_pressure;BME280_temperature;BME280_humidity;BME280_pressure;Samples;Min_cycle;Max_cycle;Signal;HPM_P1;HPM_P2
2022/04/13 00:02:08;;;;;;;33.80;6.07;;;13.70;99.90;;;;;;5030103;28;20088;-72
2022/04/13 00:04:34;;;;;;;24.23;6.18;;;13.70;99.90;;;;;;5019614;28;20418;-72
2022/04/13 00:07:01;;;;;;;22.83;4.88;;;13.70;99.90;;;;;;5030918;28;20106;-73
2022/04/13 00:09:27;;;;;;;24.50;6.30;;;13.70;99.90;;;;;;5020115;28;20065;-72
2022/04/13 00:11:54;;;;;;;25.25;5.30;;;13.70;99.90;;;;;;5006607;28;20065;-72
2022/04/13 00:14:23;;;;;;;26.98;5.38;;;13.80;99.90;;;;;;4999452;28;20133;-72
2022/04/13 00:16:51;;;;;;;25.23;5.15;;;13.80;99.90;;;;;;5037118;28;20492;-73
2022/04/13 00:19:17;;;;;;;20.23;5.10;;;13.80;99.90;;;;;;5004560;28;20065;-73
2022/04/13 00:21:44;;;;;;;19.70;4.05;;;13.80;99.90;;;;;;5035330;28;20061;-74
2022/04/13 00:24:12;;;;;;;21.85;4.65;;;13.80;99.90;;;;;;5034952;28;20079;-72
2022/04/13 00:26:38;;;;;;;21.40;4.63;;;13.80;99.90;;;;;;5022001;28;20037;-74
2022/04/13 00:29:03;;;;;;;21.40;4.75;;;13.80;99.90;;;;;;5037995;28;20433;-73
2022/04/13 00:31:30;;;;;;;24.08;5.55;;;13.80;99.90;;;;;;5003601;28;20034;-72
2022/04/13 00:33:57;;;;;;;20.33;4.88;;;13.80;99.90;;;;;;5004163;28;20049;-72
2022/04/13 00:36:23;;;;;;;27.95;5.38;;;13.90;99.90;;;;;;5032149;28;20069;-73
2022/04/13 00:38:49;;;;;;;22.73;5.40;;;13.90;99.90;;;;;;5032556;28;20503;-72
2022/04/13 00:41:17;;;;;;;19.63;4.75;;;13.90;99.90;;;;;;5036292;28;20033;-72
2022/04/13 00:43:44;;;;;;;27.13;5.53;;;13.90;99.90;;;;;;5016853;28;20041;-72
2022/04/13 00:46:10;;;;;;;22.17;5.32;;;13.90;99.90;;;;;;5036478;28;20113;-73
2022/04/13 00:48:39;;;;;;;18.60;5.13;;;13.90;99.90;;;;;;5036723;28;20251;-72
2022/04/13 00:51:06;;;;;;;20.08;5.53;;;13.90;99.90;;;;;;5036158;28;20079;-73
2022/04/13 00:53:35;;;;;;;21.13;5.68;;;13.90;99.90;;;;;;5018962;28;20065;-72
2022/04/13 00:56:03;;;;;;;28.42;5.25;;;13.90;99.90;;;;;;5034439;28;20038;-73
2022/04/13 00:58:32;;;;;;;22.02;5.80;;;13.90;99.90;;;;;;5038823;28;20048;-72
2022/04/13 01:01:02;;;;;;;30.25;6.22;;;14.00;99.90;;;;;;4998522;28;20050;-72
2022/04/13 01:03:29;;;;;;;17.95;4.53;;;14.00;99.90;;;;;;5037546;28;20077;-73
2022/04/13 01:05:56;;;;;;;22.00;5.03;;;14.00;99.90;;;;;;5033876;28;20037;-72
2022/04/13 01:08:22;;;;;;;23.17;4.40;;;14.00;99.90;;;;;;5021278;28;20041;-73
2022/04/13 01:10:49;;;;;;;22.85;4.70;;;14.00;99.90;;;;;;5000859;28;20486;-72
2022/04/13 01:13:16;;;;;;;19.60;4.95;;;14.00;99.90;;;;;;5017425;28;20042;-72
2022/04/13 01:15:43;;;;;;;16.20;4.32;;;14.00;99.90;;;;;;4997603;28;20137;-72
2022/04/13 01:18:09;;;;;;;19.98;4.30;;;13.90;99.90;;;;;;5037202;28;20505;-72
2022/04/13 01:20:39;;;;;;;18.95;5.40;;;14.00;99.90;;;;;;5002426;28;20042;-72
2022/04/13 01:23:07;;;;;;;15.48;3.97;;;14.00;99.90;;;;;;5032597;28;20115;-73
2022/04/13 01:25:33;;;;;;;21.27;4.47;;;14.00;99.90;;;;;;5038868;28;20401;-72
2022/04/13 01:28:00;;;;;;;18.90;4.68;;;13.90;99.90;;;;;;4995051;28;20540;-74
2022/04/13 01:30:29;;;;;;;14.50;4.00;;;13.90;99.90;;;;;;5007413;28;20515;-74
2022/04/13 01:32:57;;;;;;;15.55;4.35;;;13.90;99.90;;;;;;5030078;28;20036;-73
2022/04/13 01:35:23;;;;;;;13.43;3.97;;;13.90;99.90;;;;;;5004700;28;20052;-73
2022/04/13 01:37:49;;;;;;;15.57;4.15;;;13.90;99.90;;;;;;5025470;28;20105;-74
2022/04/13 01:40:16;;;;;;;14.45;4.00;;;13.90;99.90;;;;;;5021165;28;20161;-74
2022/04/13 01:42:44;;;;;;;15.55;4.13;;;13.90;99.90;;;;;;5022743;28;20060;-75
2022/04/13 01:45:11;;;;;;;19.00;4.80;;;13.90;99.90;;;;;;5037211;28;20052;-73
2022/04/13 01:47:37;;;;;;;19.02;4.60;;;13.90;99.90;;;;;;5023123;28;20049;-74
2022/04/13 01:50:04;;;;;;;16.38;4.57;;;13.90;99.90;;;;;;5021339;28;20063;-73
2022/04/13 01:52:30;;;;;;;16.13;4.60;;;13.90;99.90;;;;;;5026793;28;20048;-73
2022/04/13 01:54:56;;;;;;;18.17;4.47;;;13.80;99.90;;;;;;5039070;28;20038;-75
2022/04/13 01:57:23;;;;;;;18.05;5.05;;;13.80;99.90;;;;;;5035539;28;20127;-73
2022/04/13 01:59:49;;;;;;;16.05;4.63;;;13.80;99.90;;;;;;5036257;28;20037;-75
2022/04/13 02:02:16;;;;;;;18.13;4.53;;;13.80;99.90;;;;;;5005294;28;20092;-74
2022/04/13 02:04:42;;;;;;;19.08;5.03;;;13.80;99.90;;;;;;5019247;28;20034;-72
2022/04/13 02:07:09;;;;;;;20.20;5.10;;;13.80;99.90;;;;;;5021902;28;20521;-73
2022/04/13 02:09:35;;;;;;;18.52;4.97;;;13.80;99.90;;;;;;5017159;28;20066;-73
2022/04/13 02:12:01;;;;;;;19.83;5.40;;;13.80;99.90;;;;;;5042483;28;20060;-72
2022/04/13 02:14:29;;;;;;;17.13;4.28;;;13.80;99.90;;;;;;5001847;28;20037;-74
2022/04/13 02:16:55;;;;;;;17.55;4.43;;;13.80;99.90;;;;;;5028080;28;20305;-74
2022/04/13 02:19:21;;;;;;;21.73;4.97;;;13.90;99.90;;;;;;5034640;28;20034;-74
2022/04/13 02:21:48;;;;;;;19.48;4.97;;;13.90;99.90;;;;;;5032762;28;20496;-72
2022/04/13 02:24:14;;;;;;;24.55;5.47;;;13.90;99.90;;;;;;5019359;28;20034;-73
2022/04/13 02:26:40;;;;;;;19.75;4.53;;;13.90;99.90;;;;;;5036900;28;20045;-73
2022/04/13 02:29:07;;;;;;;20.73;5.35;;;13.90;99.90;;;;;;5024463;28;20049;-75
2022/04/13 02:31:33;;;;;;;19.60;4.70;;;13.90;99.90;;;;;;5033503;28;20037;-76
2022/04/13 02:33:58;;;;;;;17.90;4.25;;;13.90;99.90;;;;;;5019215;28;20056;-74
2022/04/13 02:36:26;;;;;;;16.02;4.53;;;13.90;99.90;;;;;;4989474;28;20053;-73
2022/04/13 02:38:53;;;;;;;17.58;3.95;;;14.00;99.90;;;;;;5016826;28;20030;-74
2022/04/13 02:41:19;;;;;;;15.13;4.50;;;14.00;99.90;;;;;;5018096;28;20088;-72
2022/04/13 02:43:46;;;;;;;18.33;4.43;;;14.00;99.90;;;;;;5017777;28;20698;-72
2022/04/13 02:46:12;;;;;;;13.57;4.45;;;14.00;99.90;;;;;;5031349;28;20034;-72
2022/04/13 02:48:38;;;;;;;16.75;4.32;;;14.00;99.90;;;;;;5017804;28;20037;-73
2022/04/13 02:51:04;;;;;;;19.77;4.70;;;14.10;99.90;;;;;;5031705;28;20401;-72
2022/04/13 02:53:31;;;;;;;23.83;5.25;;;14.00;99.90;;;;;;5020038;28;20092;-72
2022/04/13 02:55:59;;;;;;;15.82;4.50;;;14.00;99.90;;;;;;5035623;28;20041;-72
2022/04/13 02:58:25;;;;;;;17.30;4.50;;;14.00;99.90;;;;;;4999363;28;20045;-72
2022/04/13 03:00:51;;;;;;;15.10;4.78;;;14.00;99.90;;;;;;5018401;28;20443;-71
2022/04/13 03:03:18;;;;;;;18.20;4.60;;;14.00;99.90;;;;;;5016330;28;20041;-72
2022/04/13 03:05:45;;;;;;;14.65;4.35;;;14.00;99.90;;;;;;5016823;28;20065;-72
2022/04/13 03:08:10;;;;;;;20.92;5.07;;;14.00;99.90;;;;;;5023971;28;20037;-73
2022/04/13 03:10:36;;;;;;;22.67;5.72;;;14.00;99.90;;;;;;5015064;28;20041;-72
2022/04/13 03:13:03;;;;;;;14.02;4.93;;;14.00;99.90;;;;;;5018853;28;20041;-73
2022/04/13 03:15:29;;;;;;;18.48;5.13;;;14.00;99.90;;;;;;5030016;28;20034;-73
2022/04/13 03:17:55;;;;;;;25.30;5.20;;;14.00;99.90;;;;;;5001368;28;20041;-73
2022/04/13 03:20:21;;;;;;;22.83;4.93;;;14.00;99.90;;;;;;5018817;28;20041;-73
2022/04/13 03:22:50;;;;;;;23.17;5.53;;;14.00;99.90;;;;;;5021378;28;20045;-73
2022/04/13 03:25:17;;;;;;;24.67;5.47;;;14.00;99.90;;;;;;5007029;28;20038;-73
2022/04/13 03:27:42;;;;;;;19.77;5.30;;;14.00;99.90;;;;;;5012431;28;20104;-73
2022/04/13 03:30:09;;;;;;;19.27;4.78;;;14.00;99.90;;;;;;5015180;28;20046;-72
2022/04/13 03:32:39;;;;;;;20.33;4.80;;;14.00;99.90;;;;;;5020171;28;20432;-71
2022/04/13 03:35:07;;;;;;;13.23;4.25;;;14.00;99.90;;;;;;5017455;28;20405;-73
2022/04/13 03:37:34;;;;;;;18.30;4.70;;;14.00;99.90;;;;;;5019543;28;20405;-72
2022/04/13 03:40:00;;;;;;;21.30;4.28;;;14.00;99.90;;;;;;5020968;28;20453;-72
2022/04/13 03:42:25;;;;;;;17.48;4.50;;;13.90;99.90;;;;;;4999635;28;20120;-72
2022/04/13 03:44:51;;;;;;;17.55;4.22;;;13.80;99.90;;;;;;5018365;28;20870;-71
2022/04/13 03:47:18;;;;;;;13.00;4.30;;;13.70;99.90;;;;;;5030345;28;20140;-72
2022/04/13 03:49:44;;;;;;;16.25;4.43;;;13.70;99.90;;;;;;4998069;28;20034;-72
2022/04/13 03:52:10;;;;;;;26.02;5.40;;;13.60;99.90;;;;;;5017550;28;20953;-73
2022/04/13 03:54:36;;;;;;;18.95;5.50;;;13.60;99.90;;;;;;5036859;28;20034;-72
2022/04/13 03:57:01;;;;;;;21.05;5.20;;;13.60;99.90;;;;;;5036506;28;20064;-72
2022/04/13 03:59:28;;;;;;;19.63;4.97;;;13.50;99.90;;;;;;5019192;28;20120;-72
2022/04/13 04:01:54;;;;;;;14.38;4.47;;;13.50;99.90;;;;;;5017212;28;20520;-71
2022/04/13 04:04:20;;;;;;;20.25;5.53;;;13.50;99.90;;;;;;5002177;28;20034;-72
2022/04/13 04:06:46;;;;;;;20.85;5.55;;;13.50;99.90;;;;;;5018610;28;20048;-72
2022/04/13 04:09:13;;;;;;;21.70;6.30;;;13.50;99.90;;;;;;5019364;28;20050;-72
2022/04/13 04:11:38;;;;;;;17.88;5.80;;;13.50;99.90;;;;;;5000161;28;20037;-72
2022/04/13 04:14:05;;;;;;;19.15;5.63;;;13.50;99.90;;;;;;5016495;28;20095;-72
2022/04/13 04:16:31;;;;;;;22.33;6.07;;;13.50;99.90;;;;;;5021055;28;20041;-72
2022/04/13 04:18:57;;;;;;;25.95;6.32;;;13.50;99.90;;;;;;5016998;28;20034;-72
2022/04/13 04:21:24;;;;;;;24.60;6.43;;;13.50;99.90;;;;;;5018480;28;20397;-72
2022/04/13 04:23:50;;;;;;;22.25;5.57;;;13.50;99.90;;;;;;5015471;28;20124;-72
2022/04/13 04:26:15;;;;;;;13.05;4.43;;;13.50;99.90;;;;;;5017880;28;20580;-73
2022/04/13 04:28:42;;;;;;;19.50;4.82;;;13.50;99.90;;;;;;5020399;28;20045;-71
2022/04/13 04:31:08;;;;;;;14.88;5.13;;;13.50;99.90;;;;;;5012091;28;20068;-72
2022/04/13 04:33:34;;;;;;;15.68;4.57;;;13.50;99.90;;;;;;5016903;28;20568;-72
2022/04/13 04:36:00;;;;;;;17.80;4.63;;;13.50;99.90;;;;;;4998889;28;20030;-72
2022/04/13 04:38:32;;;;;;;15.80;4.43;;;13.50;99.90;;;;;;5016296;28;20042;-72
2022/04/13 04:40:59;;;;;;;12.93;3.80;;;13.50;99.90;;;;;;4999665;28;20048;-72
2022/04/13 04:43:26;;;;;;;16.98;4.57;;;13.50;99.90;;;;;;5020319;28;20038;-72
2022/04/13 04:45:52;;;;;;;16.70;4.60;;;13.50;99.90;;;;;;5013886;28;20084;-72
2022/04/13 04:48:18;;;;;;;17.98;5.55;;;13.40;99.90;;;;;;5015399;28;20041;-72
2022/04/13 04:50:44;;;;;;;13.77;4.63;;;13.50;99.90;;;;;;5018103;28;20045;-72
2022/04/13 04:53:09;;;;;;;16.52;4.70;;;13.50;99.90;;;;;;5017145;28;20045;-72
2022/04/13 04:55:35;;;;;;;15.18;4.63;;;13.40;99.90;;;;;;5021267;28;20160;-72
2022/04/13 04:58:03;;;;;;;17.55;4.85;;;13.50;99.90;;;;;;5022166;28;20057;-74
2022/04/13 05:00:29;;;;;;;14.00;4.72;;;13.40;99.90;;;;;;5002118;28;20033;-73
2022/04/13 05:02:56;;;;;;;13.35;4.28;;;13.30;99.90;;;;;;5008979;28;20043;-72
2022/04/13 05:05:22;;;;;;;11.20;4.57;;;13.40;99.90;;;;;;5020512;28;20045;-72
2022/04/13 05:07:48;;;;;;;10.57;3.65;;;13.40;99.90;;;;;;5017664;28;20042;-72
2022/04/13 05:10:15;;;;;;;8.98;3.40;;;13.30;99.90;;;;;;5006669;28;20037;-72
2022/04/13 05:12:43;;;;;;;11.57;4.25;;;13.30;99.90;;;;;;5043104;28;20045;-72
2022/04/13 05:15:10;;;;;;;10.88;4.13;;;13.30;99.90;;;;;;5018798;28;20568;-72
2022/04/13 05:17:37;;;;;;;8.50;3.28;;;13.30;99.90;;;;;;5040512;28;20053;-73
2022/04/13 05:20:07;;;;;;;9.00;3.78;;;13.40;99.90;;;;;;5006676;28;20069;-73
2022/04/13 05:22:33;;;;;;;16.05;4.50;;;13.30;99.90;;;;;;5022621;28;20052;-73
2022/04/13 05:25:07;;;;;;;10.27;3.70;;;13.40;99.90;;;;;;5037792;28;20137;-73
2022/04/13 05:27:33;;;;;;;10.32;3.20;;;13.40;99.90;;;;;;4998125;28;20198;-73
2022/04/13 05:29:58;;;;;;;11.45;4.25;;;13.30;99.90;;;;;;5023749;28;20041;-72
2022/04/13 05:32:24;;;;;;;10.38;3.35;;;13.40;99.90;;;;;;5034074;28;20554;-72
2022/04/13 05:34:58;;;;;;;8.23;3.42;;;13.30;99.90;;;;;;5033676;28;20081;-73
2022/04/13 05:37:24;;;;;;;8.40;2.88;;;13.40;99.90;;;;;;5036669;28;20034;-73
2022/04/13 05:39:50;;;;;;;7.63;2.83;;;13.30;99.90;;;;;;5023648;28;20405;-72
2022/04/13 05:42:22;;;;;;;5.68;2.60;;;13.30;99.90;;;;;;5024591;28;20071;-73
2022/04/13 05:44:48;;;;;;;7.55;3.15;;;13.40;99.90;;;;;;5001135;28;20493;-73
2022/04/13 05:47:15;;;;;;;11.07;3.22;;;13.50;99.90;;;;;;5036575;28;20040;-74
2022/04/13 05:49:41;;;;;;;6.30;2.97;;;13.40;99.90;;;;;;5020663;28;20038;-73
2022/04/13 05:52:07;;;;;;;11.27;3.15;;;13.40;99.90;;;;;;5018828;28;20078;-72
2022/04/13 05:54:34;;;;;;;11.00;3.65;;;13.40;99.90;;;;;;5021311;28;20136;-71
2022/04/13 05:57:02;;;;;;;8.82;3.40;;;13.40;99.90;;;;;;5017883;28;20045;-73
2022/04/13 05:59:29;;;;;;;12.73;3.75;;;13.40;99.90;;;;;;5000294;28;20065;-72
2022/04/13 06:01:54;;;;;;;11.38;4.28;;;13.40;99.90;;;;;;5034879;28;20034;-72
2022/04/13 06:04:21;;;;;;;11.48;3.95;;;13.40;99.90;;;;;;5032114;28;20519;-72
2022/04/13 06:06:47;;;;;;;14.98;4.40;;;13.50;99.90;;;;;;4999855;28;20033;-73
2022/04/13 06:09:13;;;;;;;12.98;4.90;;;13.50;99.90;;;;;;5021804;28;20042;-72
2022/04/13 06:11:39;;;;;;;15.30;3.97;;;13.40;99.90;;;;;;5022300;28;20115;-72
2022/04/13 06:14:05;;;;;;;16.38;5.40;;;13.50;99.90;;;;;;5019899;28;20030;-72
2022/04/13 06:16:31;;;;;;;15.70;4.97;;;13.50;99.90;;;;;;5002074;28;20160;-72
2022/04/13 06:18:57;;;;;;;16.48;4.38;;;13.40;99.90;;;;;;5020327;28;20189;-72
2022/04/13 06:21:24;;;;;;;17.00;5.50;;;13.30;99.90;;;;;;5002466;28;20038;-72
2022/04/13 06:23:50;;;;;;;15.00;4.78;;;13.40;99.90;;;;;;5019375;28;20045;-72
2022/04/13 06:26:17;;;;;;;19.50;5.80;;;13.30;99.90;;;;;;5032969;28;20038;-72
2022/04/13 06:28:44;;;;;;;13.63;5.10;;;13.40;99.90;;;;;;4999574;28;20045;-73
2022/04/13 06:31:10;;;;;;;17.15;5.25;;;13.40;99.90;;;;;;4986390;28;20037;-72
2022/04/13 06:33:36;;;;;;;15.48;4.88;;;13.20;99.90;;;;;;5017804;28;20187;-72
2022/04/13 06:36:05;;;;;;;14.73;4.47;;;13.30;99.90;;;;;;5020314;28;20037;-70
2022/04/13 06:38:32;;;;;;;10.57;3.58;;;13.30;99.90;;;;;;4999983;28;20052;-70
2022/04/13 06:40:57;;;;;;;9.38;3.25;;;13.20;99.90;;;;;;5002019;28;20374;-71
2022/04/13 06:43:23;;;;;;;8.48;3.40;;;13.10;99.90;;;;;;5016411;28;20164;-71
2022/04/13 06:45:49;;;;;;;8.80;2.72;;;13.10;99.90;;;;;;5016751;28;20056;-71
2022/04/13 06:48:15;;;;;;;7.47;2.45;;;13.10;99.90;;;;;;5021199;28;20038;-71
2022/04/13 06:50:41;;;;;;;13.80;5.47;;;13.20;99.90;;;;;;5029703;28;20651;-73
2022/04/13 06:53:07;;;;;;;8.80;3.72;;;13.20;99.90;;;;;;5029697;28;20077;-70
2022/04/13 06:55:33;;;;;;;12.55;3.92;;;13.20;99.90;;;;;;5017326;28;20033;-71
2022/04/13 06:57:59;;;;;;;10.52;3.28;;;13.20;99.90;;;;;;5017703;28;20534;-72
2022/04/13 07:00:25;;;;;;;12.43;4.20;;;13.10;99.90;;;;;;5014449;28;20046;-71
2022/04/13 07:02:57;;;;;;;11.80;3.63;;;13.20;99.90;;;;;;5033091;28;20142;-72
2022/04/13 07:05:24;;;;;;;14.38;4.18;;;13.20;99.90;;;;;;5019913;28;20128;-72
2022/04/13 07:07:51;;;;;;;10.57;4.07;;;13.10;99.90;;;;;;5015436;28;20041;-71
2022/04/13 07:10:17;;;;;;;10.32;3.80;;;13.10;99.90;;;;;;5029888;28;20050;-71
2022/04/13 07:12:43;;;;;;;9.38;4.00;;;13.20;99.90;;;;;;5013351;28;20076;-71
2022/04/13 07:15:09;;;;;;;12.52;3.88;;;13.20;99.90;;;;;;5016283;28;20553;-72
2022/04/13 07:17:35;;;;;;;11.15;3.38;;;13.10;99.90;;;;;;5029786;28;20045;-72
2022/04/13 07:20:03;;;;;;;5.85;2.35;;;13.20;99.90;;;;;;5034611;28;20043;-72
2022/04/13 07:22:29;;;;;;;7.72;2.95;;;13.10;99.90;;;;;;5019520;28;20079;-73
2022/04/13 07:24:55;;;;;;;5.85;2.28;;;13.20;99.90;;;;;;5000772;28;20151;-71
2022/04/13 07:27:21;;;;;;;6.80;2.95;;;13.10;99.90;;;;;;5034634;28;20118;-72
2022/04/13 07:29:47;;;;;;;5.97;2.88;;;13.10;99.90;;;;;;5036234;28;20033;-72
2022/04/13 07:32:13;;;;;;;8.63;3.00;;;13.10;99.90;;;;;;5033014;28;20042;-74
2022/04/13 07:34:40;;;;;;;8.43;3.45;;;13.20;99.90;;;;;;5021584;28;20037;-73
2022/04/13 07:37:06;;;;;;;8.82;3.40;;;13.10;99.90;;;;;;5030602;28;20066;-71
2022/04/13 07:39:32;;;;;;;9.02;3.38;;;13.10;99.90;;;;;;5031275;28;20064;-72
2022/04/13 07:41:58;;;;;;;6.93;3.58;;;13.20;99.90;;;;;;5025291;28;20045;-71
2022/04/13 07:44:24;;;;;;;9.13;3.67;;;13.10;99.90;;;;;;5014231;28;20057;-71
2022/04/13 07:46:50;;;;;;;11.38;3.38;;;13.10;99.90;;;;;;4999185;28;20034;-72
2022/04/13 07:49:16;;;;;;;10.13;3.60;;;13.30;99.90;;;;;;5031239;28;20052;-72
2022/04/13 07:51:42;;;;;;;8.82;4.38;;;13.10;99.90;;;;;;5019567;28;20034;-71
2022/04/13 07:54:08;;;;;;;11.30;4.13;;;13.20;99.90;;;;;;5018172;28;20061;-72
2022/04/13 07:56:35;;;;;;;11.88;4.47;;;13.20;99.90;;;;;;5033120;28;20043;-71
2022/04/13 07:59:03;;;;;;;11.93;4.38;;;13.20;99.90;;;;;;5015074;28;20469;-72
2022/04/13 08:01:30;;;;;;;10.73;4.43;;;13.30;99.90;;;;;;5013691;28;20030;-72
2022/04/13 08:03:56;;;;;;;15.63;5.32;;;13.10;99.90;;;;;;5017441;28;20492;-72
2022/04/13 08:06:22;;;;;;;15.02;5.65;;;13.30;99.90;;;;;;5015859;28;21074;-72
2022/04/13 08:08:48;;;;;;;11.93;4.90;;;13.20;99.90;;;;;;5013671;28;20106;-71
2022/04/13 08:11:14;;;;;;;13.52;5.28;;;13.20;99.90;;;;;;5032560;28;20041;-72
2022/04/13 08:13:41;;;;;;;11.35;5.47;;;13.30;99.90;;;;;;5018014;28;20045;-71
2022/04/13 08:16:07;;;;;;;12.38;4.70;;;13.30;99.90;;;;;;5011732;28;20735;-72
2022/04/13 08:18:33;;;;;;;13.80;5.22;;;13.30;99.90;;;;;;5016008;28;20081;-71
2022/04/13 08:20:59;;;;;;;16.38;5.65;;;13.20;99.90;;;;;;5032124;28;20045;-71
2022/04/13 08:23:25;;;;;;;11.52;4.72;;;13.30;99.90;;;;;;4999791;28;20040;-71
2022/04/13 08:25:52;;;;;;;12.52;4.53;;;13.30;99.90;;;;;;5034977;28;20041;-71
2022/04/13 08:28:18;;;;;;;12.75;5.15;;;13.40;99.90;;;;;;5034186;28;20534;-71
2022/04/13 08:30:45;;;;;;;12.57;4.70;;;13.40;99.90;;;;;;5024024;28;20033;-71
2022/04/13 08:33:11;;;;;;;16.52;5.80;;;13.20;99.90;;;;;;5022810;28;20381;-71
2022/04/13 08:35:37;;;;;;;15.63;5.03;;;13.10;99.90;;;;;;5018005;28;20497;-71
2022/04/13 08:38:03;;;;;;;12.05;5.47;;;13.10;99.90;;;;;;5034378;28;20133;-71
2022/04/13 08:40:38;;;;;;;19.15;5.53;;;13.30;99.90;;;;;;5019478;28;20466;-70
2022/04/13 08:43:10;;;;;;;17.73;6.15;;;13.10;99.90;;;;;;5023154;28;20033;-71
2022/04/13 08:45:53;;;;;;;16.98;6.07;;;13.30;99.90;;;;;;5036868;28;20045;-70
2022/04/13 08:48:23;;;;;;;20.20;5.82;;;13.20;99.90;;;;;;5021978;28;20026;-70
2022/04/13 08:50:58;;;;;;;19.98;6.63;;;13.30;99.90;;;;;;5022214;28;20050;-71
2022/04/13 08:53:29;;;;;;;13.95;5.70;;;13.30;99.90;;;;;;5017957;28;20045;-72
2022/04/13 08:55:57;;;;;;;20.33;6.45;;;13.30;99.90;;;;;;5014921;28;20568;-72
2022/04/13 08:58:46;;;;;;;25.17;5.90;;;13.20;99.90;;;;;;5019748;28;20056;-71
2022/04/13 09:01:35;;;;;;;18.55;5.65;;;13.30;99.90;;;;;;4982212;28;20038;-72
2022/04/13 09:04:10;;;;;;;19.95;6.18;;;13.30;99.90;;;;;;5012281;28;20073;-71
2022/04/13 09:06:38;;;;;;;20.20;6.18;;;13.40;99.90;;;;;;5017416;28;20040;-71
2022/04/13 09:09:25;;;;;;;24.73;6.15;;;13.40;99.90;;;;;;5002458;28;20050;-72
2022/04/13 09:11:53;;;;;;;23.38;6.15;;;13.20;99.90;;;;;;5002912;28;20586;-72
2022/04/13 09:14:21;;;;;;;19.98;5.28;;;13.30;99.90;;;;;;5012055;28;20043;-71
2022/04/13 09:16:46;;;;;;;20.25;5.95;;;13.40;99.90;;;;;;5006109;28;21105;-72
2022/04/13 09:19:13;;;;;;;24.25;6.22;;;13.30;99.90;;;;;;5005053;28;20172;-72
2022/04/13 09:21:41;;;;;;;19.13;6.55;;;13.40;99.90;;;;;;5005600;28;20044;-72
2022/04/13 09:24:10;;;;;;;17.75;6.43;;;13.30;99.90;;;;;;5019670;28;20515;-73
2022/04/13 09:26:37;;;;;;;24.90;6.88;;;13.20;99.90;;;;;;5006302;28;20080;-72
2022/04/13 09:29:03;;;;;;;24.38;7.07;;;13.30;99.90;;;;;;5007588;28;20041;-71
2022/04/13 09:31:31;;;;;;;22.80;6.82;;;13.20;99.90;;;;;;5015590;28;20041;-71
2022/04/13 09:33:57;;;;;;;21.80;6.95;;;13.40;99.90;;;;;;5009494;28;20091;-71
2022/04/13 09:36:24;;;;;;;18.35;6.70;;;13.30;99.90;;;;;;5005762;28;20038;-71
2022/04/13 09:38:54;;;;;;;29.50;8.57;;;13.30;99.90;;;;;;5017789;28;20038;-71
2022/04/13 09:41:31;;;;;;;26.27;8.40;;;13.40;99.90;;;;;;5017339;28;20050;-72
2022/04/13 09:43:57;;;;;;;20.95;7.43;;;13.40;99.90;;;;;;5002047;28;20042;-72
2022/04/13 09:46:28;;;;;;;29.73;7.10;;;13.20;99.90;;;;;;5019605;28;20033;-71
2022/04/13 09:49:15;;;;;;;22.85;7.13;;;13.50;99.90;;;;;;5017504;28;20045;-71
2022/04/13 09:51:48;;;;;;;19.27;6.97;;;13.30;99.90;;;;;;5002162;28;20156;-72
2022/04/13 09:54:15;;;;;;;17.50;7.30;;;13.30;99.90;;;;;;5018534;28;20091;-71
2022/04/13 09:56:47;;;;;;;19.42;6.43;;;13.30;99.90;;;;;;5020443;28;20117;-71
2022/04/13 09:59:24;;;;;;;27.73;7.63;;;13.40;99.90;;;;;;4997047;28;20034;-71
2022/04/13 10:01:51;;;;;;;23.67;7.25;;;13.20;99.90;;;;;;5003339;28;20025;-71
2022/04/13 10:04:30;;;;;;;25.80;8.35;;;13.30;99.90;;;;;;5020796;28;20029;-72
2022/04/13 10:07:21;;;;;;;29.67;7.20;;;13.20;99.90;;;;;;5017260;28;20097;-72
2022/04/13 10:09:48;;;;;;;30.73;8.63;;;13.20;99.90;;;;;;5002176;28;20061;-72
2022/04/13 10:12:14;;;;;;;31.98;7.93;;;13.20;99.90;;;;;;4999420;28;20033;-71
2022/04/13 10:14:41;;;;;;;30.27;7.90;;;13.20;99.90;;;;;;5012339;28;20030;-72
2022/04/13 10:17:08;;;;;;;35.80;8.43;;;13.30;99.90;;;;;;5002429;28;20045;-72
2022/04/13 10:19:35;;;;;;;26.48;7.90;;;13.20;99.90;;;;;;4980711;28;20042;-74
2022/04/13 10:22:02;;;;;;;29.27;8.50;;;13.20;99.90;;;;;;5018693;28;20053;-71
2022/04/13 10:24:33;;;;;;;31.00;8.77;;;13.30;99.90;;;;;;5004791;28;20742;-72
2022/04/13 10:27:10;;;;;;;26.10;7.18;;;13.30;99.90;;;;;;5001350;28;20037;-73
2022/04/13 10:29:37;;;;;;;29.70;8.45;;;13.20;99.90;;;;;;4999763;28;20121;-72
2022/04/13 10:32:06;;;;;;;29.13;8.10;;;13.20;99.90;;;;;;4978790;28;20124;-71
2022/04/13 10:34:37;;;;;;;22.63;6.68;;;13.40;99.90;;;;;;5012357;28;20041;-72
2022/04/13 10:37:04;;;;;;;29.10;6.80;;;13.30;99.90;;;;;;5015957;28;20119;-71
2022/04/13 10:39:30;;;;;;;24.48;6.93;;;13.30;99.90;;;;;;5002397;28;20042;-71
2022/04/13 10:41:57;;;;;;;33.70;8.38;;;13.40;99.90;;;;;;4999349;28;20044;-72
2022/04/13 10:44:41;;;;;;;26.90;7.30;;;13.40;99.90;;;;;;5020488;28;20046;-72
2022/04/13 10:47:09;;;;;;;29.23;7.25;;;13.20;99.90;;;;;;5001612;28;20048;-71
2022/04/13 10:49:45;;;;;;;30.08;6.63;;;13.30;99.90;;;;;;4986077;28;20049;-72
2022/04/13 10:52:20;;;;;;;25.38;7.88;;;13.20;99.90;;;;;;5000142;28;20053;-71
2022/04/13 10:54:54;;;;;;;25.55;7.72;;;13.40;99.90;;;;;;5002090;28;20045;-72
2022/04/13 10:57:24;;;;;;;23.23;7.22;;;13.40;99.90;;;;;;5015240;28;20038;-71
2022/04/13 10:59:52;;;;;;;30.52;7.28;;;13.40;99.90;;;;;;4984296;28;20103;-71
2022/04/13 11:02:32;;;;;;;22.17;6.90;;;13.30;99.90;;;;;;4986153;28;20091;-71
2022/04/13 11:04:59;;;;;;;22.88;6.75;;;13.20;99.90;;;;;;5010958;28;20037;-71
2022/04/13 11:07:26;;;;;;;23.58;7.30;;;13.20;99.90;;;;;;5031940;28;20033;-71
2022/04/13 11:09:57;;;;;;;28.13;7.53;;;13.40;99.90;;;;;;5019362;28;20064;-71
2022/04/13 11:12:25;;;;;;;28.52;8.20;;;13.30;99.90;;;;;;5017816;28;20580;-73
2022/04/13 11:14:53;;;;;;;28.60;7.18;;;13.20;99.90;;;;;;5014386;28;20033;-71
2022/04/13 11:17:20;;;;;;;28.67;7.82;;;13.20;99.90;;;;;;5030084;28;20460;-71
2022/04/13 11:19:48;;;;;;;28.75;7.75;;;13.30;99.90;;;;;;5017558;28;20501;-71
2022/04/13 11:22:19;;;;;;;26.20;7.38;;;13.30;99.90;;;;;;5032553;28;20033;-71
2022/04/13 11:24:49;;;;;;;23.55;6.90;;;13.30;99.90;;;;;;5015336;28;20493;-70
2022/04/13 11:27:15;;;;;;;31.70;7.20;;;13.40;99.90;;;;;;5017054;28;20484;-71
2022/04/13 11:30:03;;;;;;;28.75;8.40;;;13.40;99.90;;;;;;5019389;28;20517;-71
2022/04/13 11:32:36;;;;;;;25.42;7.13;;;13.40;99.90;;;;;;5014235;28;20485;-70
2022/04/13 11:35:04;;;;;;;22.60;6.63;;;13.40;99.90;;;;;;5027808;28;20176;-71
2022/04/13 11:37:37;;;;;;;27.48;7.55;;;13.20;99.90;;;;;;5032028;28;20046;-71
2022/04/13 11:40:05;;;;;;;;;;;13.40;99.90;;;;;;4994449;28;20037;-71
2022/04/13 11:42:35;;;;;;;27.67;6.85;;;13.50;99.90;;;;;;5006288;28;19917;-72
2022/04/13 11:45:15;;;;;;;19.60;6.00;;;13.40;99.90;;;;;;5012583;28;20483;-73
2022/04/13 11:47:51;;;;;;;21.55;6.63;;;13.30;99.90;;;;;;5000081;28;20045;-74
2022/04/13 11:50:17;;;;;;;25.45;6.95;;;13.30;99.90;;;;;;5002463;28;20053;-74
2022/04/13 11:52:49;;;;;;;35.05;7.93;;;13.40;99.90;;;;;;4982127;28;20087;-73
2022/04/13 11:55:31;;;;;;;30.43;7.20;;;13.20;99.90;;;;;;5001116;28;20160;-73
2022/04/13 11:58:02;;;;;;;23.33;6.38;;;13.30;99.90;;;;;;4983696;28;20101;-73
2022/04/13 12:00:44;;;;;;;30.30;7.32;;;13.20;99.90;;;;;;4988278;28;20076;-72
2022/04/13 12:03:11;;;;;;;26.95;7.40;;;13.30;99.90;;;;;;5005502;28;21564;-71
2022/04/13 12:05:50;;;;;;;28.48;7.80;;;13.20;99.90;;;;;;5017347;28;20037;-73
2022/04/13 12:08:25;;;;;;;26.50;7.25;;;13.20;99.90;;;;;;4993559;28;20034;-73
2022/04/13 12:11:03;;;;;;;29.95;7.20;;;13.20;99.90;;;;;;5035592;28;20600;-73
2022/04/13 12:13:44;;;;;;;29.42;8.20;;;13.20;99.90;;;;;;5036456;28;20035;-73
2022/04/13 12:16:15;;;;;;;30.58;7.68;;;13.30;99.90;;;;;;5021315;28;20037;-72
2022/04/13 12:18:42;;;;;;;35.72;7.90;;;13.40;99.90;;;;;;5027192;28;20041;-74
2022/04/13 12:21:15;;;;;;;30.17;7.25;;;13.50;99.90;;;;;;4999008;28;20041;-74
2022/04/13 12:23:43;;;;;;;29.35;7.82;;;13.50;99.90;;;;;;5028246;28;20038;-75
2022/04/13 12:26:10;;;;;;;35.03;7.85;;;13.30;99.90;;;;;;5025974;28;20068;-73
2022/04/13 12:28:38;;;;;;;31.35;7.97;;;13.50;99.90;;;;;;5005192;28;20048;-73
2022/04/13 12:31:07;;;;;;;33.00;8.23;;;13.40;99.90;;;;;;5026380;28;20045;-73
2022/04/13 12:33:34;;;;;;;40.47;9.02;;;13.30;99.90;;;;;;5037140;28;20041;-73
2022/04/13 12:36:11;;;;;;;41.78;9.13;;;13.40;99.90;;;;;;5009307;28;20489;-73
2022/04/13 12:38:41;;;;;;;38.85;8.80;;;13.30;99.90;;;;;;5034519;28;20041;-73
2022/04/13 12:41:14;;;;;;;36.47;7.95;;;13.30;99.90;;;;;;5024193;28;20056;-73
2022/04/13 12:43:57;;;;;;;29.00;8.60;;;13.50;99.90;;;;;;5026518;28;20515;-73